< < Back
Terminal Aerodrome Forecast


Current Version              Previous Versions:   1  2  3  4  5  6  7  8  9  

Terminal Aerodrome Forecast

459
FTUS42 KMLB 280551
TAFMCO
TAF
KMCO 280551Z 2806/2906 VRB04KT P6SM VCSH SCT090 OVC140
     FM281400 09006KT P6SM VCSH SCT025 OVC100
     FM281800 10010KT 6SM -RA BR BKN025 OVC040
      TEMPO 2818/2822 3SM SHRA BR BKN015 OVC025
     FM290000 11008KT 6SM -RA BR OVC015
      TEMPO 2900/2904 3SM SHRA BR OVC008=



Latest METAR

533
SAUS70 KWBC 280700 RRH
MTRMCO
METAR KMCO 280653Z 00000KT 10SM FEW040 FEW090 BKN110 OVC150 22/19 A2981
RMK AO2 RAB20E29 SLP091 P0000 T02170194


USA.gov is the U.S. government's official web portal to all federal, state and local government web resources and services.